KRYY/RYY METAR and TAF weather

Enter ICAO airport designator
Station Type Date Time Source
KRYY METAR 2019/10/23 01:50 UTC NOAA

KRYY 230150Z 26005KT 10SM CLR 13/05 A3006 RMK AO2 SLP899 P0001 T01280050 $


Station Type Date Time Source
KRYY Decoded METAR 2019/10/23 01:50 UTC NOAA

Marietta, Cobb County-McCollum Field Airport, GA, United States (KRYY) 34-00-47N 084-35-55W
Oct 22, 2019 - 09:50 PM EDT / 2019.10.23 0150 UTC
Wind: from the W (260 degrees) at 6 MPH (5 KT):0
Visibility: 10 mile(s):0
Sky conditions: clear
Precipitation last hour: 0.01 inches
Temperature: 55.0 F (12.8 C)
Dew Point: 41.0 F (5.0 C)
Relative Humidity: 59%
Pressure (altimeter): 30.06 in. Hg (1017 hPa)
ob: KRYY 230150Z 26005KT 10SM CLR 13/05 A3006 RMK AO2 SLP899 P0001 T01280050
cycle: 2

Station Type Date Time Source
KRYY TAF 2019/10/22 18:22 UTC NOAA

TAF KRYY 221720Z 2218/2318 29012G18KT P6SM FEW250
FM230000 29006KT P6SM SKC
FM231400 34005KT P6SM SKC

Example: see airport list